sensor_id;sensor_type;location;lat;lon;timestamp;temperature;humidity
13328;DHT22;6733;51.044;3.746;2023-03-12T00:00:50;7.60;99.90
13328;DHT22;6733;51.044;3.746;2023-03-12T00:03:16;7.60;99.90
13328;DHT22;6733;51.044;3.746;2023-03-12T00:05:44;7.60;99.90
13328;DHT22;6733;51.044;3.746;2023-03-12T00:08:10;7.60;99.90
13328;DHT22;6733;51.044;3.746;2023-03-12T00:10:38;7.50;99.90
13328;DHT22;6733;51.044;3.746;2023-03-12T00:13:05;7.50;99.90
13328;DHT22;6733;51.044;3.746;2023-03-12T00:15:35;7.60;99.90
13328;DHT22;6733;51.044;3.746;2023-03-12T00:18:02;7.60;99.90
13328;DHT22;6733;51.044;3.746;2023-03-12T00:20:28;7.60;99.90
13328;DHT22;6733;51.044;3.746;2023-03-12T00:22:54;7.50;99.90
13328;DHT22;6733;51.044;3.746;2023-03-12T00:25:20;7.50;99.90
13328;DHT22;6733;51.044;3.746;2023-03-12T00:27:46;7.50;99.90
13328;DHT22;6733;51.044;3.746;2023-03-12T00:30:13;7.40;99.90
13328;DHT22;6733;51.044;3.746;2023-03-12T00:32:39;7.30;99.90
13328;DHT22;6733;51.044;3.746;2023-03-12T00:35:05;7.30;99.90
13328;DHT22;6733;51.044;3.746;2023-03-12T00:37:32;7.30;99.90
13328;DHT22;6733;51.044;3.746;2023-03-12T00:39:59;7.30;99.90
13328;DHT22;6733;51.044;3.746;2023-03-12T00:42:27;7.30;99.90
13328;DHT22;6733;51.044;3.746;2023-03-12T00:44:53;7.20;99.90
13328;DHT22;6733;51.044;3.746;2023-03-12T00:47:19;7.20;99.90
13328;DHT22;6733;51.044;3.746;2023-03-12T00:49:45;7.30;99.90
13328;DHT22;6733;51.044;3.746;2023-03-12T00:52:11;7.20;99.90
13328;DHT22;6733;51.044;3.746;2023-03-12T00:54:38;7.20;99.90
13328;DHT22;6733;51.044;3.746;2023-03-12T00:57:04;7.20;99.90
13328;DHT22;6733;51.044;3.746;2023-03-12T00:59:30;7.20;99.90
13328;DHT22;6733;51.044;3.746;2023-03-12T01:01:56;7.20;99.90
13328;DHT22;6733;51.044;3.746;2023-03-12T01:04:23;7.20;99.90
13328;DHT22;6733;51.044;3.746;2023-03-12T01:06:49;7.30;99.90
13328;DHT22;6733;51.044;3.746;2023-03-12T01:09:15;7.30;99.90
13328;DHT22;6733;51.044;3.746;2023-03-12T01:11:41;7.30;99.90
13328;DHT22;6733;51.044;3.746;2023-03-12T01:14:08;7.30;99.90
13328;DHT22;6733;51.044;3.746;2023-03-12T01:16:34;7.20;99.90
13328;DHT22;6733;51.044;3.746;2023-03-12T01:19:01;7.20;99.90
13328;DHT22;6733;51.044;3.746;2023-03-12T01:21:28;7.20;99.90
13328;DHT22;6733;51.044;3.746;2023-03-12T01:23:55;7.30;99.90
13328;DHT22;6733;51.044;3.746;2023-03-12T01:26:22;7.20;99.90
13328;DHT22;6733;51.044;3.746;2023-03-12T01:28:49;7.20;99.90
13328;DHT22;6733;51.044;3.746;2023-03-12T01:31:17;7.30;99.90
13328;DHT22;6733;51.044;3.746;2023-03-12T01:33:47;7.20;99.90
13328;DHT22;6733;51.044;3.746;2023-03-12T01:36:18;7.30;99.90
13328;DHT22;6733;51.044;3.746;2023-03-12T01:38:45;7.30;99.90
13328;DHT22;6733;51.044;3.746;2023-03-12T01:41:11;7.20;99.90
13328;DHT22;6733;51.044;3.746;2023-03-12T01:43:38;7.20;99.90
13328;DHT22;6733;51.044;3.746;2023-03-12T01:49:06;7.20;99.90
13328;DHT22;6733;51.044;3.746;2023-03-12T01:51:49;7.20;99.90
13328;DHT22;6733;51.044;3.746;2023-03-12T01:56:51;7.20;99.90
13328;DHT22;6733;51.044;3.746;2023-03-12T01:59:30;7.20;99.90
13328;DHT22;6733;51.044;3.746;2023-03-12T02:01:57;7.00;99.90
13328;DHT22;6733;51.044;3.746;2023-03-12T02:04:26;7.00;99.90
13328;DHT22;6733;51.044;3.746;2023-03-12T02:07:05;6.90;99.90
13328;DHT22;6733;51.044;3.746;2023-03-12T02:09:34;6.90;99.90
13328;DHT22;6733;51.044;3.746;2023-03-12T02:12:01;6.90;99.90
13328;DHT22;6733;51.044;3.746;2023-03-12T02:14:28;6.90;99.90
13328;DHT22;6733;51.044;3.746;2023-03-12T02:16:54;6.90;99.90
13328;DHT22;6733;51.044;3.746;2023-03-12T02:19:47;6.80;99.90
13328;DHT22;6733;51.044;3.746;2023-03-12T02:22:15;6.80;99.90
13328;DHT22;6733;51.044;3.746;2023-03-12T02:25:13;6.80;99.90
13328;DHT22;6733;51.044;3.746;2023-03-12T02:27:39;6.80;99.90
13328;DHT22;6733;51.044;3.746;2023-03-12T02:30:07;6.80;99.90
13328;DHT22;6733;51.044;3.746;2023-03-12T02:32:37;6.70;99.90
13328;DHT22;6733;51.044;3.746;2023-03-12T02:35:32;6.70;99.90
13328;DHT22;6733;51.044;3.746;2023-03-12T02:37:59;6.80;99.90
13328;DHT22;6733;51.044;3.746;2023-03-12T02:40:36;6.90;99.90
13328;DHT22;6733;51.044;3.746;2023-03-12T02:43:06;6.90;99.90
13328;DHT22;6733;51.044;3.746;2023-03-12T02:45:34;6.90;99.90
13328;DHT22;6733;51.044;3.746;2023-03-12T02:48:01;6.80;99.90
13328;DHT22;6733;51.044;3.746;2023-03-12T02:50:28;6.90;99.90
13328;DHT22;6733;51.044;3.746;2023-03-12T02:52:54;6.90;99.90
13328;DHT22;6733;51.044;3.746;2023-03-12T02:55:20;6.90;99.90
13328;DHT22;6733;51.044;3.746;2023-03-12T02:57:46;6.90;99.90
13328;DHT22;6733;51.044;3.746;2023-03-12T03:00:13;6.90;99.90
13328;DHT22;6733;51.044;3.746;2023-03-12T03:02:40;6.90;99.90
13328;DHT22;6733;51.044;3.746;2023-03-12T03:05:07;6.90;99.90
13328;DHT22;6733;51.044;3.746;2023-03-12T03:07:34;6.90;99.90
13328;DHT22;6733;51.044;3.746;2023-03-12T03:10:00;6.90;99.90
13328;DHT22;6733;51.044;3.746;2023-03-12T03:12:33;6.90;99.90
13328;DHT22;6733;51.044;3.746;2023-03-12T03:15:00;6.90;99.90
13328;DHT22;6733;51.044;3.746;2023-03-12T03:17:27;7.00;99.90
13328;DHT22;6733;51.044;3.746;2023-03-12T03:19:54;6.90;99.90
13328;DHT22;6733;51.044;3.746;2023-03-12T03:22:21;6.90;99.90
13328;DHT22;6733;51.044;3.746;2023-03-12T03:24:47;7.00;99.90
13328;DHT22;6733;51.044;3.746;2023-03-12T03:27:14;7.00;99.90
13328;DHT22;6733;51.044;3.746;2023-03-12T03:29:41;7.00;99.90
13328;DHT22;6733;51.044;3.746;2023-03-12T03:32:07;7.00;99.90
13328;DHT22;6733;51.044;3.746;2023-03-12T03:34:33;7.00;99.90
13328;DHT22;6733;51.044;3.746;2023-03-12T03:36:59;7.00;99.90
13328;DHT22;6733;51.044;3.746;2023-03-12T03:39:27;7.00;99.90
13328;DHT22;6733;51.044;3.746;2023-03-12T03:41:54;7.00;99.90
13328;DHT22;6733;51.044;3.746;2023-03-12T03:44:20;7.00;99.90
13328;DHT22;6733;51.044;3.746;2023-03-12T03:46:48;7.00;99.90
13328;DHT22;6733;51.044;3.746;2023-03-12T03:49:14;7.00;99.90
13328;DHT22;6733;51.044;3.746;2023-03-12T03:51:41;7.10;99.90
13328;DHT22;6733;51.044;3.746;2023-03-12T03:54:09;7.10;99.90
13328;DHT22;6733;51.044;3.746;2023-03-12T03:56:35;7.10;99.90
13328;DHT22;6733;51.044;3.746;2023-03-12T03:59:02;7.10;99.90
13328;DHT22;6733;51.044;3.746;2023-03-12T04:01:29;7.10;99.90
13328;DHT22;6733;51.044;3.746;2023-03-12T04:03:57;7.10;99.90
13328;DHT22;6733;51.044;3.746;2023-03-12T04:06:23;7.10;99.90
13328;DHT22;6733;51.044;3.746;2023-03-12T04:08:49;7.10;99.90
13328;DHT22;6733;51.044;3.746;2023-03-12T04:11:18;7.10;99.90
13328;DHT22;6733;51.044;3.746;2023-03-12T04:13:44;7.20;99.90
13328;DHT22;6733;51.044;3.746;2023-03-12T04:16:11;7.20;99.90
13328;DHT22;6733;51.044;3.746;2023-03-12T04:18:37;7.20;99.90
13328;DHT22;6733;51.044;3.746;2023-03-12T04:21:06;7.30;99.90
13328;DHT22;6733;51.044;3.746;2023-03-12T04:23:33;7.30;99.90
13328;DHT22;6733;51.044;3.746;2023-03-12T04:26:00;7.40;99.90
13328;DHT22;6733;51.044;3.746;2023-03-12T04:28:26;7.30;99.90
13328;DHT22;6733;51.044;3.746;2023-03-12T04:30:57;7.30;99.90
13328;DHT22;6733;51.044;3.746;2023-03-12T04:33:27;7.30;99.90
13328;DHT22;6733;51.044;3.746;2023-03-12T04:35:53;7.30;99.90
13328;DHT22;6733;51.044;3.746;2023-03-12T04:38:21;7.30;99.90
13328;DHT22;6733;51.044;3.746;2023-03-12T04:40:59;7.30;99.90
13328;DHT22;6733;51.044;3.746;2023-03-12T04:43:27;7.30;99.90
13328;DHT22;6733;51.044;3.746;2023-03-12T04:45:54;7.30;99.90
13328;DHT22;6733;51.044;3.746;2023-03-12T04:48:20;7.40;99.90
13328;DHT22;6733;51.044;3.746;2023-03-12T04:50:47;7.30;99.90
13328;DHT22;6733;51.044;3.746;2023-03-12T04:53:13;7.40;99.90
13328;DHT22;6733;51.044;3.746;2023-03-12T04:55:39;7.40;99.90
13328;DHT22;6733;51.044;3.746;2023-03-12T04:58:05;7.40;99.90
13328;DHT22;6733;51.044;3.746;2023-03-12T05:00:32;7.40;99.90
13328;DHT22;6733;51.044;3.746;2023-03-12T05:02:58;7.40;99.90
13328;DHT22;6733;51.044;3.746;2023-03-12T05:05:24;7.50;99.90
13328;DHT22;6733;51.044;3.746;2023-03-12T05:07:50;7.50;99.90
13328;DHT22;6733;51.044;3.746;2023-03-12T05:10:16;7.50;99.90
13328;DHT22;6733;51.044;3.746;2023-03-12T05:12:43;7.50;99.90
13328;DHT22;6733;51.044;3.746;2023-03-12T05:15:09;7.60;99.90
13328;DHT22;6733;51.044;3.746;2023-03-12T05:17:35;7.60;99.90
13328;DHT22;6733;51.044;3.746;2023-03-12T05:20:02;7.60;99.90
13328;DHT22;6733;51.044;3.746;2023-03-12T05:22:30;7.60;99.90
13328;DHT22;6733;51.044;3.746;2023-03-12T05:24:56;7.60;99.90
13328;DHT22;6733;51.044;3.746;2023-03-12T05:27:22;7.70;99.90
13328;DHT22;6733;51.044;3.746;2023-03-12T05:29:51;7.70;99.90
13328;DHT22;6733;51.044;3.746;2023-03-12T05:32:17;7.70;99.90
13328;DHT22;6733;51.044;3.746;2023-03-12T05:34:44;7.70;99.90
13328;DHT22;6733;51.044;3.746;2023-03-12T05:37:09;7.70;99.90
13328;DHT22;6733;51.044;3.746;2023-03-12T05:39:36;7.70;99.90
13328;DHT22;6733;51.044;3.746;2023-03-12T05:42:03;7.60;99.90
13328;DHT22;6733;51.044;3.746;2023-03-12T05:44:29;7.70;99.90
13328;DHT22;6733;51.044;3.746;2023-03-12T05:46:56;7.70;99.90
13328;DHT22;6733;51.044;3.746;2023-03-12T05:49:22;7.80;99.90
13328;DHT22;6733;51.044;3.746;2023-03-12T05:51:48;7.70;99.90
13328;DHT22;6733;51.044;3.746;2023-03-12T05:54:16;7.80;99.90
13328;DHT22;6733;51.044;3.746;2023-03-12T05:56:42;7.80;99.90
13328;DHT22;6733;51.044;3.746;2023-03-12T05:59:08;7.80;99.90
13328;DHT22;6733;51.044;3.746;2023-03-12T06:01:38;7.70;99.90
13328;DHT22;6733;51.044;3.746;2023-03-12T06:04:04;7.70;99.90
13328;DHT22;6733;51.044;3.746;2023-03-12T06:06:32;7.80;99.90
13328;DHT22;6733;51.044;3.746;2023-03-12T06:08:58;7.90;99.90
13328;DHT22;6733;51.044;3.746;2023-03-12T06:11:25;7.90;99.90
13328;DHT22;6733;51.044;3.746;2023-03-12T06:13:51;7.90;99.90
13328;DHT22;6733;51.044;3.746;2023-03-12T06:16:21;8.00;99.90
13328;DHT22;6733;51.044;3.746;2023-03-12T06:18:48;8.00;99.90
13328;DHT22;6733;51.044;3.746;2023-03-12T06:21:20;8.10;99.90
13328;DHT22;6733;51.044;3.746;2023-03-12T06:23:47;8.10;99.90
13328;DHT22;6733;51.044;3.746;2023-03-12T06:26:15;8.10;99.90
13328;DHT22;6733;51.044;3.746;2023-03-12T06:28:42;8.10;99.90
13328;DHT22;6733;51.044;3.746;2023-03-12T06:31:08;8.10;99.90
13328;DHT22;6733;51.044;3.746;2023-03-12T06:33:35;8.20;99.90
13328;DHT22;6733;51.044;3.746;2023-03-12T06:36:04;8.20;99.90
13328;DHT22;6733;51.044;3.746;2023-03-12T06:38:30;8.20;99.90
13328;DHT22;6733;51.044;3.746;2023-03-12T06:41:02;8.20;99.90
13328;DHT22;6733;51.044;3.746;2023-03-12T06:43:30;8.20;99.90
13328;DHT22;6733;51.044;3.746;2023-03-12T06:45:58;8.20;99.90
13328;DHT22;6733;51.044;3.746;2023-03-12T06:48:29;8.30;99.90
13328;DHT22;6733;51.044;3.746;2023-03-12T06:50:56;8.30;99.90
13328;DHT22;6733;51.044;3.746;2023-03-12T06:53:22;8.20;99.90
13328;DHT22;6733;51.044;3.746;2023-03-12T06:55:50;8.30;99.90
13328;DHT22;6733;51.044;3.746;2023-03-12T06:58:17;8.30;99.90
13328;DHT22;6733;51.044;3.746;2023-03-12T07:00:44;8.40;99.90
13328;DHT22;6733;51.044;3.746;2023-03-12T07:03:10;8.40;99.90
13328;DHT22;6733;51.044;3.746;2023-03-12T07:05:36;8.50;99.90
13328;DHT22;6733;51.044;3.746;2023-03-12T07:08:02;8.50;99.90
13328;DHT22;6733;51.044;3.746;2023-03-12T07:10:28;8.50;99.90
13328;DHT22;6733;51.044;3.746;2023-03-12T07:12:55;8.60;99.90
13328;DHT22;6733;51.044;3.746;2023-03-12T07:15:22;8.70;99.90
13328;DHT22;6733;51.044;3.746;2023-03-12T07:17:49;8.80;99.90
13328;DHT22;6733;51.044;3.746;2023-03-12T07:20:15;8.80;99.90
13328;DHT22;6733;51.044;3.746;2023-03-12T07:22:41;8.80;99.90
13328;DHT22;6733;51.044;3.746;2023-03-12T07:25:08;8.90;99.90
13328;DHT22;6733;51.044;3.746;2023-03-12T07:27:34;9.00;99.90
13328;DHT22;6733;51.044;3.746;2023-03-12T07:30:01;9.10;99.90
13328;DHT22;6733;51.044;3.746;2023-03-12T07:32:27;9.10;99.90
13328;DHT22;6733;51.044;3.746;2023-03-12T07:34:53;9.20;99.90
13328;DHT22;6733;51.044;3.746;2023-03-12T07:37:19;9.40;99.90
13328;DHT22;6733;51.044;3.746;2023-03-12T07:39:45;9.50;99.90
13328;DHT22;6733;51.044;3.746;2023-03-12T07:42:16;9.60;99.90
13328;DHT22;6733;51.044;3.746;2023-03-12T07:44:42;9.60;99.90
13328;DHT22;6733;51.044;3.746;2023-03-12T07:47:08;9.70;99.90
13328;DHT22;6733;51.044;3.746;2023-03-12T07:49:34;9.80;99.90
13328;DHT22;6733;51.044;3.746;2023-03-12T07:52:00;9.80;99.90
13328;DHT22;6733;51.044;3.746;2023-03-12T07:54:26;9.90;99.90
13328;DHT22;6733;51.044;3.746;2023-03-12T07:56:56;9.90;99.90
13328;DHT22;6733;51.044;3.746;2023-03-12T07:59:22;10.00;99.90
13328;DHT22;6733;51.044;3.746;2023-03-12T08:01:48;10.00;99.90
13328;DHT22;6733;51.044;3.746;2023-03-12T08:04:14;9.90;99.90
13328;DHT22;6733;51.044;3.746;2023-03-12T08:06:41;9.70;99.90
13328;DHT22;6733;51.044;3.746;2023-03-12T08:09:10;9.70;99.90
13328;DHT22;6733;51.044;3.746;2023-03-12T08:11:36;9.70;99.90
13328;DHT22;6733;51.044;3.746;2023-03-12T08:14:03;9.70;99.90
13328;DHT22;6733;51.044;3.746;2023-03-12T08:16:30;9.70;99.90
13328;DHT22;6733;51.044;3.746;2023-03-12T08:18:56;9.80;99.90
13328;DHT22;6733;51.044;3.746;2023-03-12T08:21:22;9.80;99.90
13328;DHT22;6733;51.044;3.746;2023-03-12T08:23:48;9.80;99.90
13328;DHT22;6733;51.044;3.746;2023-03-12T08:26:15;9.80;99.90
13328;DHT22;6733;51.044;3.746;2023-03-12T08:28:41;9.90;99.90
13328;DHT22;6733;51.044;3.746;2023-03-12T08:31:08;10.00;99.90
13328;DHT22;6733;51.044;3.746;2023-03-12T08:33:35;10.10;99.90
13328;DHT22;6733;51.044;3.746;2023-03-12T08:36:01;10.20;99.90
13328;DHT22;6733;51.044;3.746;2023-03-12T08:38:27;10.30;99.90
13328;DHT22;6733;51.044;3.746;2023-03-12T08:40:56;10.40;99.90
13328;DHT22;6733;51.044;3.746;2023-03-12T08:43:23;10.50;99.90
13328;DHT22;6733;51.044;3.746;2023-03-12T08:46:00;10.50;99.90
13328;DHT22;6733;51.044;3.746;2023-03-12T08:48:28;10.50;99.90
13328;DHT22;6733;51.044;3.746;2023-03-12T08:50:56;10.50;99.90
13328;DHT22;6733;51.044;3.746;2023-03-12T08:53:24;10.50;99.90
13328;DHT22;6733;51.044;3.746;2023-03-12T08:55:54;10.50;99.90
13328;DHT22;6733;51.044;3.746;2023-03-12T08:58:21;10.50;99.90
13328;DHT22;6733;51.044;3.746;2023-03-12T09:00:47;10.70;99.90
13328;DHT22;6733;51.044;3.746;2023-03-12T09:03:14;10.80;99.90
13328;DHT22;6733;51.044;3.746;2023-03-12T09:05:41;10.80;99.90
13328;DHT22;6733;51.044;3.746;2023-03-12T09:08:08;10.90;99.90
13328;DHT22;6733;51.044;3.746;2023-03-12T09:10:34;11.00;99.90
13328;DHT22;6733;51.044;3.746;2023-03-12T09:13:01;11.00;99.90
13328;DHT22;6733;51.044;3.746;2023-03-12T09:15:27;11.00;99.90
13328;DHT22;6733;51.044;3.746;2023-03-12T09:17:54;11.00;99.90
13328;DHT22;6733;51.044;3.746;2023-03-12T09:20:22;11.10;99.90
13328;DHT22;6733;51.044;3.746;2023-03-12T09:22:48;11.10;99.90
13328;DHT22;6733;51.044;3.746;2023-03-12T09:25:15;11.20;99.90
13328;DHT22;6733;51.044;3.746;2023-03-12T09:27:45;11.30;99.90
13328;DHT22;6733;51.044;3.746;2023-03-12T09:30:14;11.40;99.90
13328;DHT22;6733;51.044;3.746;2023-03-12T09:32:40;11.30;99.90
13328;DHT22;6733;51.044;3.746;2023-03-12T09:35:07;11.50;99.90
13328;DHT22;6733;51.044;3.746;2023-03-12T09:37:34;11.60;99.90
13328;DHT22;6733;51.044;3.746;2023-03-12T09:40:01;11.60;99.90
13328;DHT22;6733;51.044;3.746;2023-03-12T09:42:43;11.70;99.90
13328;DHT22;6733;51.044;3.746;2023-03-12T09:45:22;11.60;99.90
13328;DHT22;6733;51.044;3.746;2023-03-12T09:47:53;11.60;99.90
13328;DHT22;6733;51.044;3.746;2023-03-12T09:50:30;11.60;99.90
13328;DHT22;6733;51.044;3.746;2023-03-12T09:53:02;11.60;99.90
13328;DHT22;6733;51.044;3.746;2023-03-12T09:55:35;11.70;99.90
13328;DHT22;6733;51.044;3.746;2023-03-12T09:58:02;11.90;99.90
13328;DHT22;6733;51.044;3.746;2023-03-12T10:00:32;11.90;99.90
13328;DHT22;6733;51.044;3.746;2023-03-12T10:03:09;12.00;99.90
13328;DHT22;6733;51.044;3.746;2023-03-12T10:22:51;12.60;99.90
13328;DHT22;6733;51.044;3.746;2023-03-12T10:25:39;12.40;99.90
13328;DHT22;6733;51.044;3.746;2023-03-12T10:28:16;12.60;99.90
13328;DHT22;6733;51.044;3.746;2023-03-12T10:30:53;12.70;99.90
13328;DHT22;6733;51.044;3.746;2023-03-12T10:33:20;13.00;99.90
13328;DHT22;6733;51.044;3.746;2023-03-12T10:35:49;13.00;99.90
13328;DHT22;6733;51.044;3.746;2023-03-12T10:38:21;13.00;99.90
13328;DHT22;6733;51.044;3.746;2023-03-12T10:40:50;13.10;99.90
13328;DHT22;6733;51.044;3.746;2023-03-12T10:43:16;13.00;99.90
13328;DHT22;6733;51.044;3.746;2023-03-12T10:45:56;13.10;99.90
13328;DHT22;6733;51.044;3.746;2023-03-12T10:48:26;13.00;99.90
13328;DHT22;6733;51.044;3.746;2023-03-12T10:53:32;13.10;99.90
13328;DHT22;6733;51.044;3.746;2023-03-12T10:56:04;13.10;99.90
13328;DHT22;6733;51.044;3.746;2023-03-12T10:58:34;13.20;99.90
13328;DHT22;6733;51.044;3.746;2023-03-12T11:01:01;13.10;99.90
13328;DHT22;6733;51.044;3.746;2023-03-12T11:03:29;13.70;99.90
13328;DHT22;6733;51.044;3.746;2023-03-12T11:06:00;13.90;99.90
13328;DHT22;6733;51.044;3.746;2023-03-12T11:08:30;13.70;99.90
13328;DHT22;6733;51.044;3.746;2023-03-12T11:10:59;13.70;99.90
13328;DHT22;6733;51.044;3.746;2023-03-12T11:16:00;13.10;99.90
13328;DHT22;6733;51.044;3.746;2023-03-12T11:18:35;13.10;99.90
13328;DHT22;6733;51.044;3.746;2023-03-12T11:23:35;13.00;99.90
13328;DHT22;6733;51.044;3.746;2023-03-12T11:26:09;13.10;99.90
13328;DHT22;6733;51.044;3.746;2023-03-12T11:28:43;13.10;99.90
13328;DHT22;6733;51.044;3.746;2023-03-12T11:31:24;13.00;99.90
13328;DHT22;6733;51.044;3.746;2023-03-12T11:33:55;12.90;99.90
13328;DHT22;6733;51.044;3.746;2023-03-12T11:36:50;12.80;99.90
13328;DHT22;6733;51.044;3.746;2023-03-12T11:56:54;13.30;99.90
13328;DHT22;6733;51.044;3.746;2023-03-12T12:05:04;13.20;99.90
13328;DHT22;6733;51.044;3.746;2023-03-12T12:07:47;13.20;99.90
13328;DHT22;6733;51.044;3.746;2023-03-12T12:13:29;12.80;99.90
13328;DHT22;6733;51.044;3.746;2023-03-12T12:27:14;12.70;99.90
13328;DHT22;6733;51.044;3.746;2023-03-12T12:32:19;13.00;99.90
13328;DHT22;6733;51.044;3.746;2023-03-12T12:34:59;13.10;99.90
13328;DHT22;6733;51.044;3.746;2023-03-12T12:37:50;13.00;99.90
13328;DHT22;6733;51.044;3.746;2023-03-12T12:40:28;13.00;99.90
13328;DHT22;6733;51.044;3.746;2023-03-12T12:45:29;13.10;99.90
13328;DHT22;6733;51.044;3.746;2023-03-12T12:48:06;13.00;99.90
13328;DHT22;6733;51.044;3.746;2023-03-12T12:50:38;13.10;99.90
13328;DHT22;6733;51.044;3.746;2023-03-12T12:59:29;12.90;99.90
13328;DHT22;6733;51.044;3.746;2023-03-12T13:01:58;13.00;99.90
13328;DHT22;6733;51.044;3.746;2023-03-12T13:04:36;13.20;99.90
13328;DHT22;6733;51.044;3.746;2023-03-12T13:09:46;13.50;99.90
13328;DHT22;6733;51.044;3.746;2023-03-12T13:14:52;13.50;99.90
13328;DHT22;6733;51.044;3.746;2023-03-12T13:17:35;13.40;99.90
13328;DHT22;6733;51.044;3.746;2023-03-12T13:20:20;13.30;99.90
13328;DHT22;6733;51.044;3.746;2023-03-12T13:30:52;13.50;99.90
13328;DHT22;6733;51.044;3.746;2023-03-12T13:33:42;13.30;99.90
13328;DHT22;6733;51.044;3.746;2023-03-12T13:39:00;13.20;99.90
13328;DHT22;6733;51.044;3.746;2023-03-12T13:41:47;13.10;99.90
13328;DHT22;6733;51.044;3.746;2023-03-12T13:49:45;12.90;99.90
13328;DHT22;6733;51.044;3.746;2023-03-12T13:52:28;13.00;99.90
13328;DHT22;6733;51.044;3.746;2023-03-12T13:57:48;12.70;99.90
13328;DHT22;6733;51.044;3.746;2023-03-12T14:00:19;12.70;99.90
13328;DHT22;6733;51.044;3.746;2023-03-12T14:03:12;12.90;99.90
13328;DHT22;6733;51.044;3.746;2023-03-12T14:06:04;13.00;99.90
13328;DHT22;6733;51.044;3.746;2023-03-12T14:17:04;13.10;99.90
13328;DHT22;6733;51.044;3.746;2023-03-12T14:19:32;13.30;99.90
13328;DHT22;6733;51.044;3.746;2023-03-12T14:22:02;13.30;99.90
13328;DHT22;6733;51.044;3.746;2023-03-12T14:24:33;13.00;99.90
13328;DHT22;6733;51.044;3.746;2023-03-12T14:27:03;13.00;99.90
13328;DHT22;6733;51.044;3.746;2023-03-12T14:29:42;13.00;99.90
13328;DHT22;6733;51.044;3.746;2023-03-12T14:32:16;13.00;99.90
13328;DHT22;6733;51.044;3.746;2023-03-12T14:34:52;12.80;99.90
13328;DHT22;6733;51.044;3.746;2023-03-12T14:37:36;12.70;99.90
13328;DHT22;6733;51.044;3.746;2023-03-12T14:42:48;12.60;99.90
13328;DHT22;6733;51.044;3.746;2023-03-12T14:45:19;12.60;99.90
13328;DHT22;6733;51.044;3.746;2023-03-12T14:47:47;12.60;99.90
13328;DHT22;6733;51.044;3.746;2023-03-12T14:50:19;12.70;99.90
13328;DHT22;6733;51.044;3.746;2023-03-12T14:52:45;12.70;99.90
13328;DHT22;6733;51.044;3.746;2023-03-12T14:55:14;12.60;99.90
13328;DHT22;6733;51.044;3.746;2023-03-12T14:57:43;12.60;99.90
13328;DHT22;6733;51.044;3.746;2023-03-12T15:00:21;12.60;99.90
13328;DHT22;6733;51.044;3.746;2023-03-12T15:02:48;12.50;99.90
13328;DHT22;6733;51.044;3.746;2023-03-12T15:05:17;12.50;99.90
13328;DHT22;6733;51.044;3.746;2023-03-12T15:07:45;12.50;99.90
13328;DHT22;6733;51.044;3.746;2023-03-12T15:10:30;12.50;99.90
13328;DHT22;6733;51.044;3.746;2023-03-12T15:12:59;12.50;99.90
13328;DHT22;6733;51.044;3.746;2023-03-12T15:15:45;12.50;99.90
13328;DHT22;6733;51.044;3.746;2023-03-12T15:18:17;12.50;99.90
13328;DHT22;6733;51.044;3.746;2023-03-12T15:20:46;12.40;99.90
13328;DHT22;6733;51.044;3.746;2023-03-12T15:23:14;12.50;99.90
13328;DHT22;6733;51.044;3.746;2023-03-12T15:25:42;12.50;99.90
13328;DHT22;6733;51.044;3.746;2023-03-12T15:30:37;12.50;99.90
13328;DHT22;6733;51.044;3.746;2023-03-12T15:38:47;12.40;99.90
13328;DHT22;6733;51.044;3.746;2023-03-12T15:41:17;12.40;99.90
13328;DHT22;6733;51.044;3.746;2023-03-12T15:43:50;12.30;99.90
13328;DHT22;6733;51.044;3.746;2023-03-12T15:46:17;12.20;99.90
13328;DHT22;6733;51.044;3.746;2023-03-12T15:48:51;12.10;99.90
13328;DHT22;6733;51.044;3.746;2023-03-12T15:51:30;12.10;99.90
13328;DHT22;6733;51.044;3.746;2023-03-12T15:56:30;12.00;99.90
13328;DHT22;6733;51.044;3.746;2023-03-12T15:59:03;12.00;99.90
13328;DHT22;6733;51.044;3.746;2023-03-12T16:01:29;12.10;99.90
13328;DHT22;6733;51.044;3.746;2023-03-12T16:04:08;12.00;99.90
13328;DHT22;6733;51.044;3.746;2023-03-12T16:06:34;12.00;99.90
13328;DHT22;6733;51.044;3.746;2023-03-12T16:09:02;12.00;99.90
13328;DHT22;6733;51.044;3.746;2023-03-12T16:11:34;12.00;99.90
13328;DHT22;6733;51.044;3.746;2023-03-12T16:14:06;11.90;99.90
13328;DHT22;6733;51.044;3.746;2023-03-12T16:16:33;11.90;99.90
13328;DHT22;6733;51.044;3.746;2023-03-12T16:18:59;11.90;99.90
13328;DHT22;6733;51.044;3.746;2023-03-12T16:21:25;11.90;99.90
13328;DHT22;6733;51.044;3.746;2023-03-12T16:23:52;11.80;99.90
13328;DHT22;6733;51.044;3.746;2023-03-12T16:26:18;11.80;99.90
13328;DHT22;6733;51.044;3.746;2023-03-12T16:28:44;11.80;99.90
13328;DHT22;6733;51.044;3.746;2023-03-12T16:31:14;11.80;99.90
13328;DHT22;6733;51.044;3.746;2023-03-12T16:33:41;11.80;99.90
13328;DHT22;6733;51.044;3.746;2023-03-12T16:36:13;11.80;99.90
13328;DHT22;6733;51.044;3.746;2023-03-12T16:38:44;11.80;99.90
13328;DHT22;6733;51.044;3.746;2023-03-12T16:41:13;11.80;99.90
13328;DHT22;6733;51.044;3.746;2023-03-12T16:43:43;11.80;99.90
13328;DHT22;6733;51.044;3.746;2023-03-12T16:46:17;11.70;99.90
13328;DHT22;6733;51.044;3.746;2023-03-12T16:48:44;11.70;99.90
13328;DHT22;6733;51.044;3.746;2023-03-12T16:51:14;11.70;99.90
13328;DHT22;6733;51.044;3.746;2023-03-12T16:53:42;11.70;99.90
13328;DHT22;6733;51.044;3.746;2023-03-12T16:56:17;11.70;99.90
13328;DHT22;6733;51.044;3.746;2023-03-12T16:58:44;11.70;99.90
13328;DHT22;6733;51.044;3.746;2023-03-12T17:01:13;11.70;99.90
13328;DHT22;6733;51.044;3.746;2023-03-12T17:03:42;11.70;99.90
13328;DHT22;6733;51.044;3.746;2023-03-12T17:06:19;11.70;99.90
13328;DHT22;6733;51.044;3.746;2023-03-12T17:08:46;11.60;99.90
13328;DHT22;6733;51.044;3.746;2023-03-12T17:11:20;11.60;99.90
13328;DHT22;6733;51.044;3.746;2023-03-12T17:13:49;11.60;99.90
13328;DHT22;6733;51.044;3.746;2023-03-12T17:16:17;11.60;99.90
13328;DHT22;6733;51.044;3.746;2023-03-12T17:18:44;11.50;99.90
13328;DHT22;6733;51.044;3.746;2023-03-12T17:21:14;11.50;99.90
13328;DHT22;6733;51.044;3.746;2023-03-12T17:23:42;11.50;99.90
13328;DHT22;6733;51.044;3.746;2023-03-12T17:26:08;11.50;99.90
13328;DHT22;6733;51.044;3.746;2023-03-12T17:28:35;11.40;99.90
13328;DHT22;6733;51.044;3.746;2023-03-12T17:31:01;11.40;99.90
13328;DHT22;6733;51.044;3.746;2023-03-12T17:33:27;11.40;99.90
13328;DHT22;6733;51.044;3.746;2023-03-12T17:35:58;11.40;99.90
13328;DHT22;6733;51.044;3.746;2023-03-12T17:38:25;11.40;99.90
13328;DHT22;6733;51.044;3.746;2023-03-12T17:40:52;11.30;99.90
13328;DHT22;6733;51.044;3.746;2023-03-12T17:43:18;11.30;99.90
13328;DHT22;6733;51.044;3.746;2023-03-12T17:45:44;11.30;99.90
13328;DHT22;6733;51.044;3.746;2023-03-12T17:48:10;11.30;99.90
13328;DHT22;6733;51.044;3.746;2023-03-12T17:50:36;11.30;99.90
13328;DHT22;6733;51.044;3.746;2023-03-12T17:53:03;11.20;99.90
13328;DHT22;6733;51.044;3.746;2023-03-12T17:55:29;11.30;99.90
13328;DHT22;6733;51.044;3.746;2023-03-12T17:57:55;11.30;99.90
13328;DHT22;6733;51.044;3.746;2023-03-12T18:00:21;11.20;99.90
13328;DHT22;6733;51.044;3.746;2023-03-12T18:02:48;11.20;99.90
13328;DHT22;6733;51.044;3.746;2023-03-12T18:05:15;11.20;99.90
13328;DHT22;6733;51.044;3.746;2023-03-12T18:07:41;11.20;99.90
13328;DHT22;6733;51.044;3.746;2023-03-12T18:10:09;11.20;99.90
13328;DHT22;6733;51.044;3.746;2023-03-12T18:12:36;11.20;99.90